createdAt,value
2022-10-04T00:06:30.577Z,25.30
2022-10-04T00:22:14.057Z,32.37
2022-10-04T00:37:19.344Z,21.90
2022-10-04T00:52:27.212Z,24.57
2022-10-04T01:07:38.013Z,32.27
2022-10-04T01:22:45.072Z,23.83
2022-10-04T01:37:49.445Z,28.93
2022-10-04T01:52:58.553Z,36.17
2022-10-04T02:08:07.452Z,38.33
2022-10-04T02:23:13.119Z,27.57
2022-10-04T02:38:22.258Z,39.43
2022-10-04T02:53:32.828Z,37.77
2022-10-04T03:08:45.436Z,29.90
2022-10-04T03:23:52.039Z,32.27
2022-10-04T03:38:58.409Z,30.30
2022-10-04T03:54:06.904Z,25.20
2022-10-04T04:09:20.457Z,11.60
2022-10-04T04:24:29.269Z,12.63
2022-10-04T04:39:41.076Z,13.87
2022-10-04T04:54:47.091Z,14.93
2022-10-04T05:09:51.488Z,14.47
2022-10-04T05:24:59.476Z,33.00
2022-10-04T05:40:16.958Z,33.77
2022-10-04T05:55:28.923Z,41.73
2022-10-04T06:10:51.817Z,29.40
2022-10-04T06:26:00.084Z,33.40
2022-10-04T06:41:28.311Z,33.17
2022-10-04T06:56:51.317Z,40.77
2022-10-04T07:11:59.865Z,30.60
2022-10-04T07:27:08.905Z,35.87
2022-10-04T07:42:22.846Z,35.87
2022-10-04T07:57:35.335Z,42.60
2022-10-04T08:12:52.135Z,39.97
2022-10-04T08:28:21.696Z,48.67
2022-10-04T08:43:56.880Z,31.60
2022-10-04T08:59:29.788Z,37.00
2022-10-04T09:15:15.496Z,15.53
2022-10-04T09:30:22.346Z,28.70
2022-10-04T09:45:52.101Z,39.53
2022-10-04T10:01:05.414Z,22.90
2022-10-04T10:16:27.142Z,22.37
2022-10-04T10:31:53.535Z,35.13
2022-10-04T10:47:29.447Z,29.53
2022-10-04T11:03:13.321Z,64.70
2022-10-04T11:19:03.487Z,22.13
2022-10-04T11:34:35.551Z,11.53
2022-10-04T11:49:56.800Z,23.93
2022-10-04T12:05:19.720Z,10.87
2022-10-04T12:20:53.121Z,49.17
2022-10-04T12:36:13.497Z,14.03
2022-10-04T12:51:40.960Z,10.33
2022-10-04T13:07:02.816Z,8.13
2022-10-04T13:22:55.491Z,23.83
2022-10-04T13:38:16.973Z,24.90
2022-10-04T13:53:54.294Z,6.73
2022-10-04T14:09:28.972Z,4.53
2022-10-04T14:25:06.569Z,6.07
2022-10-04T14:40:45.258Z,33.30
2022-10-04T14:56:11.237Z,5.93
2022-10-04T15:11:18.725Z,4.03
2022-10-04T15:26:51.881Z,1.90
2022-10-04T15:42:04.116Z,7.17
2022-10-04T15:57:24.338Z,6.33
2022-10-04T16:12:33.042Z,2.00
2022-10-04T16:27:50.673Z,5.57
2022-10-04T16:43:01.264Z,1.80
2022-10-04T16:58:50.509Z,5.10
2022-10-04T17:14:00.636Z,7.53
2022-10-04T17:29:26.114Z,10.60
2022-10-04T17:44:45.290Z,7.50
2022-10-04T17:59:52.832Z,9.50
2022-10-04T18:15:08.463Z,3.17
2022-10-04T18:30:16.449Z,3.43
2022-10-04T18:45:23.873Z,3.87
2022-10-04T19:00:51.606Z,4.53
2022-10-04T19:16:17.221Z,4.00
2022-10-04T19:31:28.168Z,5.40
2022-10-04T19:46:43.340Z,4.70
2022-10-04T20:01:48.638Z,4.23
2022-10-04T20:17:06.648Z,8.33
2022-10-04T20:32:11.938Z,44.83
2022-10-04T20:47:38.002Z,9.63
2022-10-04T21:02:42.420Z,9.87
2022-10-04T21:18:01.233Z,2.50
2022-10-04T21:33:05.555Z,3.57
2022-10-04T21:48:09.923Z,7.50
2022-10-04T22:03:14.226Z,3.57
2022-10-04T22:18:18.595Z,2.80
2022-10-04T22:33:31.953Z,3.17
2022-10-04T22:48:36.968Z,6.43
2022-10-04T23:03:41.603Z,4.10
2022-10-04T23:18:46.068Z,2.80
2022-10-04T23:33:52.168Z,3.70
2022-10-04T23:48:56.557Z,7.83
